Time;durP1;ratioP1;P1;durP2;ratioP2;P2;SDS_P1;SDS_P2;PMS_P1;PMS_P2;Temp;Humidity;BMP_temperature;BMP_pressure;BME280_temperature;BME280_humidity;BME280_pressure;Samples;Min_cycle;Max_cycle;Signal;HPM_P1;HPM_P2
2022/04/10 00:00:51;;;;;;;17.92;3.40;;;4.10;80.10;;;;;;5050890;28;20695;-67
2022/04/10 00:03:16;;;;;;;19.15;5.82;;;4.00;80.40;;;;;;5050777;28;20041;-67
2022/04/10 00:05:42;;;;;;;17.70;3.65;;;4.00;80.50;;;;;;5051166;28;20130;-66
2022/04/10 00:08:08;;;;;;;13.23;2.95;;;4.10;80.50;;;;;;5051205;28;20418;-67
2022/04/10 00:10:34;;;;;;;21.05;3.42;;;4.00;80.60;;;;;;5050641;28;20131;-67
2022/04/10 00:13:00;;;;;;;13.70;3.80;;;4.10;80.70;;;;;;5050717;28;20128;-66
2022/04/10 00:15:26;;;;;;;13.18;3.30;;;4.00;80.70;;;;;;5050662;28;20132;-66
2022/04/10 00:17:51;;;;;;;19.77;4.00;;;4.00;80.70;;;;;;5050750;28;20098;-66
2022/04/10 00:20:17;;;;;;;10.38;2.65;;;4.00;81.00;;;;;;5050648;28;20060;-68
2022/04/10 00:22:45;;;;;;;14.00;2.97;;;3.90;81.00;;;;;;5050828;28;20140;-67
2022/04/10 00:25:13;;;;;;;18.30;4.43;;;3.90;81.20;;;;;;5050560;28;20494;-67
2022/04/10 00:27:40;;;;;;;8.98;2.75;;;3.90;81.20;;;;;;5050152;28;20044;-67
2022/04/10 00:30:07;;;;;;;15.05;3.70;;;3.90;81.10;;;;;;5050663;28;20045;-67
2022/04/10 00:32:32;;;;;;;22.45;3.78;;;3.90;81.10;;;;;;5050561;28;20045;-68
2022/04/10 00:34:58;;;;;;;12.63;3.08;;;3.80;81.20;;;;;;5050502;28;20090;-65
2022/04/10 00:37:24;;;;;;;10.15;3.35;;;3.80;81.20;;;;;;5050341;28;20098;-66
2022/04/10 00:39:50;;;;;;;16.75;3.60;;;3.90;81.10;;;;;;5050102;28;20508;-66
2022/04/10 00:42:15;;;;;;;11.75;2.72;;;3.80;81.10;;;;;;5050190;28;20072;-65
2022/04/10 00:44:41;;;;;;;16.25;2.88;;;3.70;80.70;;;;;;5049995;28;20395;-66
2022/04/10 00:47:10;;;;;;;16.42;3.13;;;3.80;80.80;;;;;;5049841;28;20032;-66
2022/04/10 00:49:36;;;;;;;20.77;3.25;;;3.80;80.50;;;;;;5050377;28;20500;-67
2022/04/10 00:52:04;;;;;;;18.40;3.30;;;3.80;80.40;;;;;;5049586;28;20671;-65
2022/04/10 00:54:30;;;;;;;15.35;3.42;;;3.90;80.10;;;;;;5050457;28;20037;-66
2022/04/10 00:56:58;;;;;;;19.05;3.08;;;3.80;79.90;;;;;;5050008;28;20051;-65
2022/04/10 00:59:25;;;;;;;12.75;2.65;;;3.90;79.60;;;;;;5049860;28;20041;-65
2022/04/10 01:01:50;;;;;;;10.10;2.85;;;3.80;79.60;;;;;;5049593;28;20041;-65
2022/04/10 01:04:16;;;;;;;10.20;2.70;;;3.90;79.40;;;;;;5049439;28;20044;-66
2022/04/10 01:06:50;;;;;;;15.27;4.63;;;3.70;79.10;;;;;;5049809;28;20067;-66
2022/04/10 01:09:16;;;;;;;10.77;3.85;;;3.70;79.10;;;;;;5048198;28;20049;-66
2022/04/10 01:11:42;;;;;;;13.77;2.70;;;3.70;79.10;;;;;;5049564;28;20577;-67
2022/04/10 01:14:09;;;;;;;13.80;2.85;;;3.70;79.10;;;;;;5048895;28;20128;-66
2022/04/10 01:16:35;;;;;;;18.35;2.97;;;3.70;79.10;;;;;;5049614;28;20049;-66
2022/04/10 01:19:03;;;;;;;16.38;3.60;;;3.70;79.10;;;;;;5048198;28;20037;-66
2022/04/10 01:21:31;;;;;;;12.60;2.75;;;3.70;79.20;;;;;;5049803;28;20501;-66
2022/04/10 01:23:58;;;;;;;14.75;2.17;;;3.70;79.10;;;;;;5048496;28;20076;-66
2022/04/10 01:26:25;;;;;;;5.82;2.00;;;3.70;78.90;;;;;;5064414;28;20068;-66
2022/04/10 01:29:07;;;;;;;12.65;2.45;;;3.70;78.90;;;;;;5052847;28;20092;-66
2022/04/10 01:31:37;;;;;;;12.55;2.58;;;3.80;79.10;;;;;;5048493;28;20164;-66
2022/04/10 01:34:05;;;;;;;7.60;2.50;;;3.70;79.10;;;;;;5044532;28;20043;-66
2022/04/10 01:36:32;;;;;;;11.15;3.25;;;3.70;79.00;;;;;;5047998;28;20056;-67
2022/04/10 01:38:59;;;;;;;12.85;2.65;;;3.70;78.90;;;;;;5047521;28;20126;-66
2022/04/10 01:41:26;;;;;;;10.77;2.72;;;3.70;79.00;;;;;;5048088;28;20048;-66
2022/04/10 01:43:54;;;;;;;13.57;3.50;;;3.70;79.10;;;;;;5045277;28;20902;-67
2022/04/10 01:46:21;;;;;;;11.15;2.20;;;3.60;79.10;;;;;;5047823;28;20037;-66
2022/04/10 01:48:47;;;;;;;17.35;3.05;;;3.60;79.30;;;;;;5048081;28;20539;-66
2022/04/10 01:51:13;;;;;;;11.77;3.47;;;3.60;79.40;;;;;;5048143;28;20124;-66
2022/04/10 01:53:39;;;;;;;5.18;2.75;;;3.60;79.40;;;;;;5047787;28;20493;-65
2022/04/10 01:56:07;;;;;;;18.85;3.60;;;3.60;79.40;;;;;;5047160;28;20536;-66
2022/04/10 01:58:35;;;;;;;12.80;2.47;;;3.60;79.50;;;;;;5045416;28;20037;-66
2022/04/10 02:01:05;;;;;;;11.88;2.70;;;3.60;79.50;;;;;;5044563;28;20086;-65
2022/04/10 02:03:31;;;;;;;10.82;2.58;;;3.60;79.70;;;;;;5046305;28;20037;-66
2022/04/10 02:05:57;;;;;;;13.18;2.45;;;3.50;79.50;;;;;;5043062;28;20037;-66
2022/04/10 02:08:22;;;;;;;14.57;2.65;;;3.60;79.70;;;;;;5048627;28;20064;-66
2022/04/10 02:10:48;;;;;;;8.38;2.47;;;3.50;79.80;;;;;;5048608;28;20119;-66
2022/04/10 02:13:13;;;;;;;21.58;2.92;;;3.50;79.80;;;;;;5048429;28;20099;-66
2022/04/10 02:15:40;;;;;;;6.28;1.98;;;3.50;79.80;;;;;;5048916;28;20049;-65
2022/04/10 02:18:06;;;;;;;15.30;2.88;;;3.40;79.70;;;;;;5048485;28;20036;-66
2022/04/10 02:20:32;;;;;;;10.10;2.45;;;3.40;80.00;;;;;;5048657;28;20045;-66
2022/04/10 02:22:57;;;;;;;12.45;3.15;;;3.50;80.00;;;;;;5047301;28;20037;-66
2022/04/10 02:25:23;;;;;;;12.52;4.45;;;3.40;79.90;;;;;;5046885;28;20045;-65
2022/04/10 02:27:49;;;;;;;14.93;4.32;;;3.50;79.90;;;;;;5039559;28;20091;-65
2022/04/10 02:30:14;;;;;;;12.30;2.72;;;3.50;79.90;;;;;;5047014;28;20037;-65
2022/04/10 02:32:40;;;;;;;15.38;3.15;;;3.50;80.00;;;;;;5046720;28;20025;-65
2022/04/10 02:35:07;;;;;;;6.57;2.25;;;3.60;80.00;;;;;;5039156;28;20039;-65
2022/04/10 02:37:33;;;;;;;10.00;2.63;;;3.60;79.90;;;;;;5041724;28;20799;-65
2022/04/10 02:39:58;;;;;;;8.10;2.75;;;3.60;80.10;;;;;;5042743;28;20037;-65
2022/04/10 02:42:24;;;;;;;10.60;3.10;;;3.60;80.00;;;;;;5046941;28;20044;-66
2022/04/10 02:44:49;;;;;;;13.23;2.22;;;3.70;80.10;;;;;;5045707;28;20033;-66
2022/04/10 02:47:15;;;;;;;12.15;2.40;;;3.70;80.10;;;;;;5046844;28;20068;-67
2022/04/10 02:49:40;;;;;;;6.38;2.08;;;3.90;80.00;;;;;;5042812;28;20080;-66
2022/04/10 02:52:06;;;;;;;7.03;2.40;;;3.80;80.60;;;;;;5048083;28;20503;-66
2022/04/10 02:54:32;;;;;;;4.15;2.10;;;3.70;80.40;;;;;;5050822;28;20051;-66
2022/04/10 02:56:58;;;;;;;4.43;2.10;;;3.60;81.10;;;;;;5051888;28;20049;-66
2022/04/10 02:59:23;;;;;;;7.28;2.55;;;3.60;81.70;;;;;;5052183;28;20048;-67
2022/04/10 03:01:50;;;;;;;7.05;2.90;;;3.60;81.60;;;;;;5051782;28;20091;-66
2022/04/10 03:04:17;;;;;;;7.35;2.80;;;3.60;82.20;;;;;;5052211;28;20060;-67
2022/04/10 03:06:42;;;;;;;5.47;3.10;;;3.60;82.30;;;;;;5051884;28;20045;-66
2022/04/10 03:09:08;;;;;;;5.85;3.72;;;3.60;83.30;;;;;;5053538;28;20107;-66
2022/04/10 03:11:34;;;;;;;6.68;3.13;;;3.60;83.60;;;;;;5053613;28;20115;-67
2022/04/10 03:14:00;;;;;;;6.57;3.10;;;3.60;83.70;;;;;;5051479;28;20536;-66
2022/04/10 03:16:25;;;;;;;4.20;2.78;;;3.60;83.50;;;;;;5054813;28;20097;-66
2022/04/10 03:18:51;;;;;;;6.65;2.97;;;3.60;83.60;;;;;;5051003;28;20041;-66
2022/04/10 03:21:20;;;;;;;4.88;3.10;;;3.70;83.70;;;;;;5051396;28;20051;-67
2022/04/10 03:23:46;;;;;;;6.15;3.90;;;3.70;83.60;;;;;;5051332;28;20194;-67
2022/04/10 03:26:12;;;;;;;6.10;3.33;;;3.70;83.80;;;;;;5051930;28;20164;-67
2022/04/10 03:28:37;;;;;;;5.28;3.30;;;3.60;84.60;;;;;;5051514;28;20516;-67
2022/04/10 03:31:03;;;;;;;4.25;3.28;;;3.60;84.80;;;;;;5051566;28;20048;-68
2022/04/10 03:33:29;;;;;;;6.78;3.00;;;3.60;84.80;;;;;;5051366;28;20068;-67
2022/04/10 03:35:55;;;;;;;9.77;3.53;;;3.60;84.70;;;;;;5051208;28;20036;-66
2022/04/10 03:38:21;;;;;;;9.18;5.38;;;3.70;85.00;;;;;;5049940;28;20171;-66
2022/04/10 03:40:47;;;;;;;10.98;3.80;;;3.70;84.70;;;;;;5051589;28;20090;-67
2022/04/10 03:43:12;;;;;;;9.80;4.38;;;3.70;84.70;;;;;;5050844;28;20041;-66
2022/04/10 03:45:39;;;;;;;9.52;4.90;;;3.70;84.70;;;;;;5051133;28;20405;-65
2022/04/10 03:48:06;;;;;;;7.10;3.50;;;3.70;84.70;;;;;;5050593;28;20048;-65
2022/04/10 03:50:33;;;;;;;8.32;3.33;;;3.70;84.50;;;;;;5049041;28;20471;-65
2022/04/10 03:53:00;;;;;;;10.98;3.50;;;3.70;84.40;;;;;;5050885;28;20041;-65
2022/04/10 03:55:26;;;;;;;11.45;3.40;;;3.70;84.30;;;;;;5053516;28;20056;-66
2022/04/10 03:57:52;;;;;;;5.57;3.13;;;3.70;84.40;;;;;;5070964;28;20036;-67
2022/04/10 04:00:18;;;;;;;4.55;3.22;;;3.60;84.40;;;;;;5065257;28;20127;-68
2022/04/10 04:02:45;;;;;;;11.60;3.70;;;3.60;84.40;;;;;;5050776;28;20056;-68
2022/04/10 04:05:10;;;;;;;5.97;2.95;;;3.60;84.40;;;;;;5050424;28;20144;-66
2022/04/10 04:07:36;;;;;;;8.52;3.45;;;3.60;84.40;;;;;;5051438;28;20123;-66
2022/04/10 04:10:03;;;;;;;6.40;3.35;;;3.60;84.40;;;;;;5050869;28;20144;-66
2022/04/10 04:12:29;;;;;;;11.70;4.03;;;3.50;84.40;;;;;;5050358;28;20513;-66
2022/04/10 04:14:55;;;;;;;8.32;3.17;;;3.60;84.50;;;;;;5049607;28;20106;-65
2022/04/10 04:17:20;;;;;;;4.90;2.92;;;3.50;84.40;;;;;;5049254;28;20409;-66
2022/04/10 04:19:49;;;;;;;6.85;3.20;;;3.40;84.50;;;;;;5050711;28;20040;-67
2022/04/10 04:22:16;;;;;;;4.47;3.15;;;3.40;84.50;;;;;;5050713;28;20053;-66
2022/04/10 04:24:42;;;;;;;8.63;3.35;;;3.40;84.60;;;;;;5050491;28;20037;-67
2022/04/10 04:27:07;;;;;;;9.18;3.65;;;3.40;84.70;;;;;;5049942;28;20041;-65
2022/04/10 04:29:33;;;;;;;5.60;3.70;;;3.40;84.80;;;;;;5050127;28;20136;-65
2022/04/10 04:31:59;;;;;;;9.10;3.78;;;3.40;84.80;;;;;;5050492;28;20049;-66
2022/04/10 04:34:25;;;;;;;10.48;4.07;;;3.40;85.50;;;;;;5050015;28;20517;-66
2022/04/10 04:36:50;;;;;;;5.40;3.45;;;3.40;85.70;;;;;;5050155;28;20037;-65
2022/04/10 04:39:16;;;;;;;9.27;3.50;;;3.40;85.80;;;;;;5050026;28;20037;-66
2022/04/10 04:41:42;;;;;;;13.60;3.80;;;3.40;86.10;;;;;;5050355;28;20067;-65
2022/04/10 04:44:07;;;;;;;7.05;3.75;;;3.40;86.50;;;;;;5053191;28;20040;-65
2022/04/10 04:46:33;;;;;;;11.95;3.70;;;3.30;86.80;;;;;;5056141;28;20581;-66
2022/04/10 04:48:59;;;;;;;9.27;4.05;;;3.30;86.80;;;;;;5049600;28;20037;-66
2022/04/10 04:51:25;;;;;;;8.27;3.88;;;3.30;86.90;;;;;;5051237;28;20037;-65
2022/04/10 04:53:50;;;;;;;10.10;4.18;;;3.30;87.20;;;;;;5058888;28;20045;-65
2022/04/10 04:56:16;;;;;;;6.95;3.83;;;3.30;87.10;;;;;;5049359;28;20055;-65
2022/04/10 04:58:43;;;;;;;8.93;4.47;;;3.30;87.40;;;;;;5049769;28;20801;-67
2022/04/10 05:01:09;;;;;;;7.88;3.80;;;3.30;87.40;;;;;;5048214;28;20053;-66
2022/04/10 05:03:34;;;;;;;11.52;3.60;;;3.30;87.50;;;;;;5050055;28;20045;-66
2022/04/10 05:06:00;;;;;;;8.52;4.38;;;3.30;87.60;;;;;;5049275;28;20462;-67
2022/04/10 05:08:26;;;;;;;10.50;3.55;;;3.30;87.60;;;;;;5049308;28;20092;-65
2022/04/10 05:10:52;;;;;;;6.82;4.30;;;3.40;87.50;;;;;;5049121;28;20076;-65
2022/04/10 05:13:17;;;;;;;16.40;7.43;;;3.40;87.50;;;;;;5048393;28;20044;-65
2022/04/10 05:15:43;;;;;;;6.80;3.67;;;3.40;87.50;;;;;;5049590;28;20934;-65
2022/04/10 05:18:09;;;;;;;7.85;3.75;;;3.40;87.60;;;;;;5048998;28;20044;-65
2022/04/10 05:20:34;;;;;;;5.95;3.97;;;3.40;87.60;;;;;;5049351;28;20045;-65
2022/04/10 05:23:00;;;;;;;5.45;3.63;;;3.40;87.50;;;;;;5049045;28;20513;-66
2022/04/10 05:25:26;;;;;;;21.77;4.60;;;3.40;87.60;;;;;;5049355;28;20040;-65
2022/04/10 05:27:51;;;;;;;11.05;4.28;;;3.50;87.70;;;;;;5048860;28;20083;-65
2022/04/10 05:30:17;;;;;;;9.35;4.25;;;3.60;87.60;;;;;;5048281;28;20048;-66
2022/04/10 05:32:43;;;;;;;8.43;3.83;;;3.60;87.70;;;;;;5048487;28;20033;-65
2022/04/10 05:35:10;;;;;;;11.15;3.83;;;3.70;87.60;;;;;;5048035;28;20037;-66
2022/04/10 05:37:36;;;;;;;10.40;3.63;;;3.80;86.90;;;;;;5049332;28;20029;-67
2022/04/10 05:40:02;;;;;;;9.73;3.60;;;3.90;86.50;;;;;;5048880;28;20048;-66
2022/04/10 05:42:28;;;;;;;10.60;3.33;;;3.90;86.00;;;;;;5049638;28;20087;-66
2022/04/10 05:45:01;;;;;;;9.02;3.35;;;4.00;85.80;;;;;;5049289;28;20075;-66
2022/04/10 05:47:27;;;;;;;4.00;2.72;;;4.00;85.50;;;;;;5048611;28;20037;-66
2022/04/10 05:49:52;;;;;;;8.07;2.63;;;4.00;85.00;;;;;;5049168;28;20041;-66
2022/04/10 05:52:18;;;;;;;4.40;2.30;;;4.10;84.90;;;;;;5048790;28;20080;-67
2022/04/10 05:54:43;;;;;;;4.30;2.80;;;4.10;84.20;;;;;;5048604;28;20052;-66
2022/04/10 05:57:09;;;;;;;9.05;2.90;;;4.10;84.30;;;;;;5048798;28;20132;-67
2022/04/10 05:59:34;;;;;;;9.00;2.90;;;4.10;84.20;;;;;;5048816;28;20041;-67
2022/04/10 06:02:00;;;;;;;7.30;3.20;;;4.10;84.10;;;;;;5048081;28;20046;-67
2022/04/10 06:04:26;;;;;;;9.52;2.90;;;4.10;84.00;;;;;;5048848;28;20041;-67
2022/04/10 06:06:52;;;;;;;6.18;2.83;;;4.20;83.80;;;;;;5048761;28;20045;-68
2022/04/10 06:09:18;;;;;;;11.15;3.75;;;4.50;84.90;;;;;;5048667;28;20053;-68
2022/04/10 06:11:43;;;;;;;9.45;2.58;;;4.80;84.70;;;;;;5048689;28;20504;-68
2022/04/10 06:14:09;;;;;;;5.57;2.70;;;5.20;83.60;;;;;;5048917;28;20044;-68
2022/04/10 06:16:34;;;;;;;7.72;3.28;;;5.30;81.40;;;;;;5048329;28;20056;-67
2022/04/10 06:19:00;;;;;;;7.85;3.08;;;5.30;81.60;;;;;;5048585;28;20041;-66
2022/04/10 06:21:26;;;;;;;9.68;3.00;;;5.30;81.20;;;;;;5048933;28;20553;-67
2022/04/10 06:23:52;;;;;;;11.82;4.82;;;5.20;81.20;;;;;;5040626;28;20041;-66
2022/04/10 06:26:18;;;;;;;15.88;3.40;;;5.20;81.50;;;;;;5052677;28;20878;-67
2022/04/10 06:28:43;;;;;;;9.23;3.30;;;5.10;82.00;;;;;;5054067;28;20402;-67
2022/04/10 06:31:09;;;;;;;13.48;3.17;;;5.10;82.20;;;;;;5053457;28;20033;-66
2022/04/10 06:33:35;;;;;;;10.23;3.00;;;5.20;82.40;;;;;;5045690;28;20029;-66
2022/04/10 06:36:00;;;;;;;11.32;3.65;;;5.20;82.50;;;;;;5044098;28;21125;-66
2022/04/10 06:38:26;;;;;;;8.30;3.17;;;5.20;82.40;;;;;;5051788;28;20755;-65
2022/04/10 06:40:51;;;;;;;11.00;4.75;;;5.10;82.40;;;;;;5051883;28;20064;-65
2022/04/10 06:43:19;;;;;;;17.58;5.45;;;5.10;82.60;;;;;;5051136;28;20044;-66
2022/04/10 06:45:44;;;;;;;11.70;3.45;;;5.10;82.70;;;;;;5047242;28;20537;-66
2022/04/10 06:48:10;;;;;;;9.20;3.78;;;5.10;82.80;;;;;;5051730;28;20048;-65
2022/04/10 06:50:36;;;;;;;10.80;3.47;;;5.10;82.70;;;;;;5051256;28;20045;-66
2022/04/10 06:53:02;;;;;;;10.23;3.38;;;5.20;82.70;;;;;;5046803;28;20508;-65
2022/04/10 06:55:27;;;;;;;12.05;3.22;;;5.20;81.90;;;;;;5050637;28;20045;-65
2022/04/10 06:57:53;;;;;;;9.27;2.85;;;5.30;80.70;;;;;;5042678;28;20044;-66
2022/04/10 07:00:19;;;;;;;11.25;2.88;;;5.40;80.40;;;;;;5049070;28;20036;-66
2022/04/10 07:02:44;;;;;;;15.38;2.60;;;5.70;79.70;;;;;;5051672;28;20064;-66
2022/04/10 07:05:10;;;;;;;12.48;3.30;;;5.70;79.40;;;;;;5051815;28;20033;-65
2022/04/10 07:07:36;;;;;;;7.47;2.25;;;5.70;79.20;;;;;;5052241;28;20466;-65
2022/04/10 07:10:02;;;;;;;8.50;2.53;;;5.80;78.70;;;;;;5051053;28;20155;-67
2022/04/10 07:12:28;;;;;;;14.65;3.72;;;5.90;78.50;;;;;;5051924;28;20049;-66
2022/04/10 07:14:53;;;;;;;9.80;2.63;;;5.90;78.60;;;;;;5052270;28;20127;-66
2022/04/10 07:17:19;;;;;;;9.50;2.60;;;6.10;78.50;;;;;;5051691;28;20810;-66
2022/04/10 07:19:45;;;;;;;16.92;4.13;;;6.10;78.20;;;;;;5051539;28;20049;-66
2022/04/10 07:24:55;;;;;;;14.23;3.30;;;6.30;77.90;;;;;;5051915;28;20390;-66
2022/04/10 07:27:21;;;;;;;10.48;2.60;;;6.30;77.20;;;;;;5051662;28;20052;-66
2022/04/10 07:29:47;;;;;;;13.73;3.08;;;6.40;76.70;;;;;;5051250;28;20041;-66
2022/04/10 07:32:12;;;;;;;11.98;2.13;;;6.50;76.20;;;;;;5051814;28;20045;-65
2022/04/10 07:34:38;;;;;;;13.75;4.60;;;6.50;75.20;;;;;;5051453;28;20591;-66
2022/04/10 07:37:04;;;;;;;10.63;2.20;;;6.50;75.50;;;;;;5050790;28;20059;-67
2022/04/10 07:39:29;;;;;;;14.50;3.30;;;6.50;74.00;;;;;;5051522;28;20125;-65
2022/04/10 07:41:55;;;;;;;15.27;2.55;;;6.60;74.90;;;;;;5051691;28;20045;-65
2022/04/10 07:44:20;;;;;;;9.38;2.10;;;6.70;74.30;;;;;;5050886;28;20041;-66
2022/04/10 07:49:30;;;;;;;16.05;4.35;;;6.90;73.40;;;;;;5051484;28;20049;-64
2022/04/10 07:51:56;;;;;;;11.75;2.05;;;7.00;71.90;;;;;;5051143;28;20105;-66
2022/04/10 07:54:21;;;;;;;8.85;1.42;;;7.00;71.90;;;;;;5050936;28;20041;-66
2022/04/10 07:56:47;;;;;;;9.43;1.77;;;7.00;70.50;;;;;;5050900;28;20041;-66
2022/04/10 07:59:13;;;;;;;13.02;2.40;;;7.10;69.90;;;;;;5051214;28;20119;-66
2022/04/10 08:01:38;;;;;;;14.98;1.70;;;7.20;70.70;;;;;;5050833;28;20064;-65
2022/04/10 08:04:04;;;;;;;11.63;1.88;;;7.30;70.00;;;;;;5050772;28;20120;-66
2022/04/10 08:06:30;;;;;;;12.00;1.52;;;7.30;68.70;;;;;;5050844;28;20033;-66
2022/04/10 08:08:56;;;;;;;6.85;1.55;;;7.20;69.10;;;;;;5050869;28;20064;-66
2022/04/10 08:11:22;;;;;;;9.48;2.15;;;7.00;69.80;;;;;;5050828;28;20052;-66
2022/04/10 08:13:48;;;;;;;12.15;2.78;;;6.90;70.00;;;;;;5050701;28;20186;-67
2022/04/10 08:16:15;;;;;;;8.95;1.83;;;6.90;71.00;;;;;;5050688;28;20136;-68
2022/04/10 08:18:40;;;;;;;14.63;2.13;;;6.90;70.30;;;;;;5050657;28;20049;-67
2022/04/10 08:21:07;;;;;;;10.95;1.60;;;7.00;69.60;;;;;;5049929;28;20525;-67
2022/04/10 08:23:33;;;;;;;12.75;2.15;;;7.10;70.40;;;;;;5050955;28;20049;-68
2022/04/10 08:25:58;;;;;;;12.98;1.90;;;7.20;67.20;;;;;;5050579;28;20048;-67
2022/04/10 08:28:24;;;;;;;8.88;2.13;;;7.40;67.60;;;;;;5051002;28;20036;-66
2022/04/10 08:30:51;;;;;;;10.57;1.50;;;7.30;67.50;;;;;;5050458;28;20049;-66
2022/04/10 08:33:17;;;;;;;7.00;1.75;;;7.30;66.60;;;;;;5050106;28;20048;-66
2022/04/10 08:35:43;;;;;;;6.07;1.60;;;7.30;66.50;;;;;;5055000;28;20044;-66
2022/04/10 08:38:08;;;;;;;8.93;1.63;;;7.40;67.40;;;;;;5056139;28;20075;-66
2022/04/10 08:40:34;;;;;;;13.63;1.58;;;7.50;67.10;;;;;;5050644;28;20132;-66
2022/04/10 08:43:03;;;;;;;5.85;1.25;;;7.60;67.80;;;;;;5050354;28;20044;-66
2022/04/10 08:45:29;;;;;;;10.13;2.20;;;7.60;66.80;;;;;;5049470;28;20074;-66
2022/04/10 08:47:55;;;;;;;12.05;1.70;;;7.60;66.20;;;;;;5045494;28;20405;-66
2022/04/10 08:50:23;;;;;;;9.48;1.83;;;7.50;67.70;;;;;;5040575;28;20106;-66
2022/04/10 08:52:52;;;;;;;10.98;1.60;;;7.30;67.20;;;;;;5040866;28;20132;-66
2022/04/10 08:55:18;;;;;;;12.63;1.70;;;7.40;67.30;;;;;;5048839;28;20055;-65
2022/04/10 08:57:44;;;;;;;11.88;1.90;;;7.50;67.20;;;;;;5049224;28;20056;-65
2022/04/10 09:00:10;;;;;;;7.38;1.63;;;7.60;66.30;;;;;;5049406;28;20040;-65
2022/04/10 09:02:46;;;;;;;14.60;2.50;;;7.70;66.90;;;;;;5044343;28;20501;-64
2022/04/10 09:05:22;;;;;;;15.30;1.58;;;7.80;66.20;;;;;;5036598;28;20033;-65
2022/04/10 09:08:07;;;;;;;16.33;4.38;;;7.90;66.00;;;;;;5048522;28;20076;-65
2022/04/10 09:10:56;;;;;;;8.43;1.65;;;7.80;65.80;;;;;;5041884;28;20055;-65
2022/04/10 09:13:48;;;;;;;8.35;1.77;;;7.80;64.20;;;;;;5047763;28;20052;-65
2022/04/10 09:16:22;;;;;;;15.50;1.65;;;7.80;62.30;;;;;;5048386;28;20045;-65
2022/04/10 09:19:00;;;;;;;9.18;1.63;;;7.80;61.60;;;;;;5045150;28;20045;-66
2022/04/10 09:21:29;;;;;;;11.13;1.60;;;8.00;63.80;;;;;;5045102;28;20049;-64
2022/04/10 09:24:04;;;;;;;12.65;2.08;;;8.00;64.40;;;;;;5048267;28;20048;-64
2022/04/10 09:26:52;;;;;;;6.90;1.17;;;8.00;64.10;;;;;;5045007;28;20103;-65
2022/04/10 09:29:20;;;;;;;12.07;1.40;;;8.00;64.30;;;;;;5046655;28;20053;-63
2022/04/10 09:31:46;;;;;;;10.07;1.40;;;8.10;62.80;;;;;;5042412;28;20063;-64
2022/04/10 09:34:18;;;;;;;9.63;2.47;;;8.20;64.10;;;;;;5032789;28;20053;-63
2022/04/10 09:36:45;;;;;;;;;;;8.30;65.00;;;;;;5038994;28;20067;-63
2022/04/10 09:39:15;;;;;;;14.48;1.38;;;8.30;63.80;;;;;;5059544;28;19924;-64
2022/04/10 09:41:43;;;;;;;16.35;1.80;;;8.10;66.50;;;;;;5049009;28;20095;-64
2022/04/10 09:44:17;;;;;;;7.70;2.15;;;7.90;65.80;;;;;;5046190;28;20033;-64
2022/04/10 09:46:43;;;;;;;8.77;1.30;;;7.90;66.70;;;;;;5041989;28;20044;-65
2022/04/10 09:49:17;;;;;;;7.07;1.13;;;7.90;66.90;;;;;;5048477;28;20494;-64
2022/04/10 09:52:03;;;;;;;8.40;1.52;;;8.00;65.80;;;;;;5048722;28;20044;-64
2022/04/10 09:54:34;;;;;;;8.40;1.50;;;8.20;65.10;;;;;;5041365;28;20502;-65
2022/04/10 09:57:14;;;;;;;9.27;1.80;;;8.20;64.30;;;;;;5049555;28;20452;-65
2022/04/10 09:59:52;;;;;;;11.15;2.03;;;8.20;64.60;;;;;;5054136;28;20047;-64
2022/04/10 10:02:20;;;;;;;10.95;1.35;;;8.40;64.50;;;;;;5054653;28;20045;-64
2022/04/10 10:04:48;;;;;;;7.68;1.33;;;8.40;64.10;;;;;;5049108;28;20040;-65
2022/04/10 10:07:18;;;;;;;12.70;1.80;;;8.40;64.20;;;;;;5048765;28;20119;-64
2022/04/10 10:09:45;;;;;;;9.90;1.80;;;8.50;64.80;;;;;;5039828;28;20053;-63
2022/04/10 10:12:11;;;;;;;6.00;1.23;;;8.60;64.20;;;;;;5046462;28;20044;-65
2022/04/10 10:14:38;;;;;;;10.27;1.33;;;8.60;63.10;;;;;;5049145;28;20116;-65
2022/04/10 10:17:05;;;;;;;5.18;0.98;;;8.70;60.90;;;;;;5048608;28;20045;-65
2022/04/10 10:19:34;;;;;;;10.05;2.35;;;8.70;60.50;;;;;;5048640;28;20048;-65
2022/04/10 10:22:02;;;;;;;6.03;1.10;;;8.70;60.40;;;;;;5048879;28;20126;-65
2022/04/10 10:24:45;;;;;;;9.52;1.55;;;8.60;61.20;;;;;;5048812;28;20048;-65
2022/04/10 10:27:51;;;;;;;10.10;1.13;;;8.60;60.90;;;;;;5048261;28;20116;-66
2022/04/10 10:30:41;;;;;;;10.52;1.10;;;8.60;61.20;;;;;;5026477;28;20046;-64
2022/04/10 10:33:15;;;;;;;11.27;1.65;;;8.60;61.00;;;;;;5025917;28;20112;-65
2022/04/10 10:35:43;;;;;;;10.23;1.52;;;8.60;62.60;;;;;;5041020;28;20052;-64
2022/04/10 10:38:23;;;;;;;7.85;1.33;;;8.70;62.60;;;;;;5048297;28;20037;-65
2022/04/10 10:40:50;;;;;;;8.77;1.30;;;8.60;60.50;;;;;;5048526;28;20044;-65
2022/04/10 10:43:22;;;;;;;6.55;2.05;;;8.60;60.90;;;;;;5048583;28;20049;-65
2022/04/10 10:45:50;;;;;;;6.38;1.02;;;8.70;61.50;;;;;;5048091;28;20041;-65
2022/04/10 10:48:23;;;;;;;5.65;1.02;;;8.80;61.50;;;;;;5047752;28;20552;-65
2022/04/10 10:50:53;;;;;;;6.03;2.03;;;8.80;60.30;;;;;;5048738;28;20045;-65
2022/04/10 10:53:40;;;;;;;8.52;1.63;;;8.70;59.90;;;;;;5048863;28;20346;-66
2022/04/10 10:56:22;;;;;;;7.93;1.20;;;8.90;60.70;;;;;;5047888;28;20052;-65
2022/04/10 10:58:49;;;;;;;7.75;1.35;;;9.10;59.10;;;;;;5048706;28;20413;-66
2022/04/10 11:01:18;;;;;;;12.70;1.35;;;9.10;61.00;;;;;;5049013;28;20055;-66
2022/04/10 11:04:04;;;;;;;10.25;1.48;;;9.10;60.30;;;;;;5048169;28;20063;-66
2022/04/10 11:06:41;;;;;;;9.55;1.65;;;9.30;60.30;;;;;;5048432;28;20045;-65
2022/04/10 11:09:30;;;;;;;6.63;1.27;;;9.20;58.80;;;;;;5047389;28;20137;-65
2022/04/10 11:11:58;;;;;;;10.07;1.10;;;9.20;58.00;;;;;;5049696;28;20076;-65
2022/04/10 11:14:39;;;;;;;8.27;1.08;;;9.20;59.20;;;;;;5050061;28;20052;-63
2022/04/10 11:17:13;;;;;;;9.32;1.30;;;9.10;59.00;;;;;;5052908;28;20049;-65
2022/04/10 11:19:39;;;;;;;6.45;1.20;;;9.00;60.50;;;;;;5042705;28;20072;-64
2022/04/10 11:22:07;;;;;;;12.70;2.83;;;9.10;60.40;;;;;;5066218;28;20072;-64
2022/04/10 11:24:34;;;;;;;4.70;1.10;;;9.20;60.90;;;;;;5063854;28;20045;-64
2022/04/10 11:27:04;;;;;;;8.43;1.50;;;9.30;60.30;;;;;;5051749;28;20136;-64
2022/04/10 11:29:31;;;;;;;11.57;1.55;;;9.10;60.30;;;;;;5051623;28;20383;-64
2022/04/10 11:32:03;;;;;;;6.70;1.20;;;9.10;60.40;;;;;;5056962;28;20492;-63
2022/04/10 11:34:29;;;;;;;6.22;1.48;;;9.20;59.70;;;;;;5056450;28;20401;-64
2022/04/10 11:36:59;;;;;;;7.30;1.35;;;9.20;59.40;;;;;;5071588;28;20109;-64
2022/04/10 11:39:35;;;;;;;9.85;1.20;;;9.10;60.10;;;;;;5066537;28;20087;-63
2022/04/10 11:42:07;;;;;;;12.00;3.38;;;9.10;60.50;;;;;;5067972;28;20052;-64
2022/04/10 11:44:33;;;;;;;8.55;1.73;;;9.10;60.40;;;;;;5064040;28;20529;-65
2022/04/10 11:47:00;;;;;;;10.52;1.90;;;9.10;59.90;;;;;;5050900;28;20049;-64
2022/04/10 11:49:26;;;;;;;9.68;0.98;;;9.10;60.30;;;;;;5031710;28;20076;-64
2022/04/10 11:52:00;;;;;;;5.85;0.80;;;9.10;60.00;;;;;;5030814;28;20044;-64
2022/04/10 11:54:32;;;;;;;11.32;1.75;;;9.10;60.20;;;;;;5063230;28;20045;-63
2022/04/10 11:56:58;;;;;;;;;;;9.10;61.30;;;;;;5052605;28;20041;-64
2022/04/10 11:59:24;;;;;;;9.75;1.40;;;9.10;60.30;;;;;;5052322;28;19928;-64
2022/04/10 12:01:50;;;;;;;6.88;1.02;;;9.10;60.30;;;;;;5051701;28;20053;-63
2022/04/10 12:04:18;;;;;;;9.73;1.38;;;9.20;61.90;;;;;;5050779;28;20037;-64
2022/04/10 12:06:44;;;;;;;10.05;2.50;;;9.20;60.90;;;;;;5038096;28;20053;-63
2022/04/10 12:09:10;;;;;;;7.18;2.30;;;9.10;61.80;;;;;;5041743;28;20071;-63
2022/04/10 12:11:43;;;;;;;3.33;0.90;;;9.10;62.00;;;;;;5049973;28;20040;-65
2022/04/10 12:14:38;;;;;;;7.03;1.40;;;9.10;61.30;;;;;;5050668;28;20044;-64
2022/04/10 12:17:09;;;;;;;8.40;2.97;;;9.20;60.00;;;;;;5049619;28;20052;-63
2022/04/10 12:19:36;;;;;;;8.93;1.63;;;9.30;60.60;;;;;;5050932;28;20091;-65
2022/04/10 12:22:09;;;;;;;5.82;1.27;;;9.40;61.30;;;;;;5050326;28;20471;-64
2022/04/10 12:24:39;;;;;;;12.10;1.30;;;9.50;61.50;;;;;;5050091;28;20048;-64
2022/04/10 12:27:06;;;;;;;8.05;1.38;;;9.40;59.60;;;;;;5050150;28;20071;-64
2022/04/10 12:29:34;;;;;;;5.78;1.00;;;9.50;60.30;;;;;;5050364;28;20175;-63
2022/04/10 12:32:00;;;;;;;4.85;0.93;;;9.50;61.40;;;;;;5049911;28;20041;-65
2022/04/10 12:34:33;;;;;;;6.40;1.40;;;9.60;60.40;;;;;;5050561;28;20045;-64
2022/04/10 12:37:07;;;;;;;5.53;2.00;;;9.50;59.70;;;;;;5050249;28;20056;-65
2022/04/10 12:39:32;;;;;;;10.90;1.33;;;9.50;60.90;;;;;;5048560;28;20049;-64
2022/04/10 12:42:07;;;;;;;10.15;1.40;;;9.50;60.80;;;;;;5049353;28;20094;-64
2022/04/10 12:44:37;;;;;;;7.55;1.63;;;9.70;60.40;;;;;;5050140;28;20057;-64
2022/04/10 12:47:07;;;;;;;6.40;1.05;;;9.90;60.30;;;;;;5050187;28;20045;-64
2022/04/10 12:49:35;;;;;;;5.18;1.35;;;10.00;56.90;;;;;;5050031;28;20103;-64
2022/04/10 12:52:05;;;;;;;8.40;1.25;;;10.00;56.20;;;;;;5049906;28;20564;-64
2022/04/10 12:54:46;;;;;;;7.20;1.52;;;10.00;56.20;;;;;;5049930;28;20040;-64
2022/04/10 12:57:23;;;;;;;13.83;1.13;;;10.00;55.90;;;;;;5049589;28;20045;-64
2022/04/10 12:59:49;;;;;;;9.55;2.83;;;10.10;57.30;;;;;;5049827;28;20072;-64
2022/04/10 13:02:25;;;;;;;5.20;1.20;;;10.00;58.30;;;;;;5050126;28;20080;-64